sensor_id;sensor_type;location;lat;lon;timestamp;temperature;humidity
19805;DHT22;10062;51.052;13.756;2023-05-08T00:01:22;8.00;1.00
19805;DHT22;10062;51.052;13.756;2023-05-08T00:03:54;7.90;1.00
19805;DHT22;10062;51.052;13.756;2023-05-08T00:06:26;7.90;1.00
19805;DHT22;10062;51.052;13.756;2023-05-08T00:08:59;7.80;1.00
19805;DHT22;10062;51.052;13.756;2023-05-08T00:11:31;7.80;1.00
19805;DHT22;10062;51.052;13.756;2023-05-08T00:14:02;7.70;1.00
19805;DHT22;10062;51.052;13.756;2023-05-08T00:16:34;7.70;1.00
19805;DHT22;10062;51.052;13.756;2023-05-08T00:19:06;7.60;1.00
19805;DHT22;10062;51.052;13.756;2023-05-08T00:21:38;7.60;1.00
19805;DHT22;10062;51.052;13.756;2023-05-08T00:24:11;7.60;1.00
19805;DHT22;10062;51.052;13.756;2023-05-08T00:26:43;7.60;1.00
19805;DHT22;10062;51.052;13.756;2023-05-08T00:29:15;7.60;1.00
19805;DHT22;10062;51.052;13.756;2023-05-08T00:31:46;7.50;1.00
19805;DHT22;10062;51.052;13.756;2023-05-08T00:34:18;7.50;1.00
19805;DHT22;10062;51.052;13.756;2023-05-08T00:36:50;7.50;1.00
19805;DHT22;10062;51.052;13.756;2023-05-08T00:39:23;7.40;1.00
19805;DHT22;10062;51.052;13.756;2023-05-08T00:41:54;7.40;1.00
19805;DHT22;10062;51.052;13.756;2023-05-08T00:44:26;7.20;1.00
19805;DHT22;10062;51.052;13.756;2023-05-08T00:46:58;7.60;1.00
19805;DHT22;10062;51.052;13.756;2023-05-08T00:49:30;7.40;1.00
19805;DHT22;10062;51.052;13.756;2023-05-08T00:52:03;7.40;1.00
19805;DHT22;10062;51.052;13.756;2023-05-08T00:54:39;7.40;1.00
19805;DHT22;10062;51.052;13.756;2023-05-08T00:57:11;7.20;1.00
19805;DHT22;10062;51.052;13.756;2023-05-08T00:59:44;7.10;1.00
19805;DHT22;10062;51.052;13.756;2023-05-08T01:02:16;7.10;1.00
19805;DHT22;10062;51.052;13.756;2023-05-08T01:04:48;7.10;1.00
19805;DHT22;10062;51.052;13.756;2023-05-08T01:07:21;7.10;1.00
19805;DHT22;10062;51.052;13.756;2023-05-08T01:09:54;7.10;1.00
19805;DHT22;10062;51.052;13.756;2023-05-08T01:12:40;7.10;1.00
19805;DHT22;10062;51.052;13.756;2023-05-08T01:15:17;7.00;1.00
19805;DHT22;10062;51.052;13.756;2023-05-08T01:17:58;7.00;1.00
19805;DHT22;10062;51.052;13.756;2023-05-08T01:20:39;6.90;1.00
19805;DHT22;10062;51.052;13.756;2023-05-08T01:32:38;6.60;1.00
19805;DHT22;10062;51.052;13.756;2023-05-08T01:35:19;6.50;1.00
19805;DHT22;10062;51.052;13.756;2023-05-08T01:37:56;8.20;1.00
19805;DHT22;10062;51.052;13.756;2023-05-08T01:40:34;6.60;1.00
19805;DHT22;10062;51.052;13.756;2023-05-08T01:43:13;6.60;1.00
19805;DHT22;10062;51.052;13.756;2023-05-08T01:45:50;6.60;1.00
19805;DHT22;10062;51.052;13.756;2023-05-08T01:48:29;6.60;1.00
19805;DHT22;10062;51.052;13.756;2023-05-08T01:51:04;6.60;1.00
19805;DHT22;10062;51.052;13.756;2023-05-08T01:53:41;6.60;1.00
19805;DHT22;10062;51.052;13.756;2023-05-08T01:56:15;6.60;1.00
19805;DHT22;10062;51.052;13.756;2023-05-08T01:58:50;6.60;1.00
19805;DHT22;10062;51.052;13.756;2023-05-08T02:01:24;6.50;1.00
19805;DHT22;10062;51.052;13.756;2023-05-08T02:04:00;6.40;1.00
19805;DHT22;10062;51.052;13.756;2023-05-08T02:06:34;6.30;1.00
19805;DHT22;10062;51.052;13.756;2023-05-08T02:09:07;6.40;1.00
19805;DHT22;10062;51.052;13.756;2023-05-08T02:11:41;6.20;1.00
19805;DHT22;10062;51.052;13.756;2023-05-08T02:14:17;6.10;1.00
19805;DHT22;10062;51.052;13.756;2023-05-08T02:16:53;6.10;1.00
19805;DHT22;10062;51.052;13.756;2023-05-08T02:19:28;6.10;1.00
19805;DHT22;10062;51.052;13.756;2023-05-08T02:22:00;6.10;1.00
19805;DHT22;10062;51.052;13.756;2023-05-08T02:24:34;6.10;1.00
19805;DHT22;10062;51.052;13.756;2023-05-08T02:27:08;6.00;1.00
19805;DHT22;10062;51.052;13.756;2023-05-08T02:29:41;6.10;1.00
19805;DHT22;10062;51.052;13.756;2023-05-08T02:32:16;6.10;1.00
19805;DHT22;10062;51.052;13.756;2023-05-08T02:34:49;6.00;1.00
19805;DHT22;10062;51.052;13.756;2023-05-08T02:37:23;6.10;1.00
19805;DHT22;10062;51.052;13.756;2023-05-08T02:39:57;6.10;1.00
19805;DHT22;10062;51.052;13.756;2023-05-08T02:42:29;6.10;1.00
19805;DHT22;10062;51.052;13.756;2023-05-08T02:45:02;6.10;1.00
19805;DHT22;10062;51.052;13.756;2023-05-08T02:47:41;6.00;1.00
19805;DHT22;10062;51.052;13.756;2023-05-08T02:50:17;6.00;1.00
19805;DHT22;10062;51.052;13.756;2023-05-08T02:52:52;5.90;1.00
19805;DHT22;10062;51.052;13.756;2023-05-08T02:55:32;5.80;1.00
19805;DHT22;10062;51.052;13.756;2023-05-08T02:58:10;5.90;1.00
19805;DHT22;10062;51.052;13.756;2023-05-08T03:00:48;5.90;1.00
19805;DHT22;10062;51.052;13.756;2023-05-08T03:03:25;5.90;1.00
19805;DHT22;10062;51.052;13.756;2023-05-08T03:06:01;5.80;1.00
19805;DHT22;10062;51.052;13.756;2023-05-08T03:08:34;5.90;1.00
19805;DHT22;10062;51.052;13.756;2023-05-08T03:11:10;5.80;1.00
19805;DHT22;10062;51.052;13.756;2023-05-08T03:13:45;5.80;1.00
19805;DHT22;10062;51.052;13.756;2023-05-08T03:16:20;5.60;1.00
19805;DHT22;10062;51.052;13.756;2023-05-08T03:18:57;5.60;1.00
19805;DHT22;10062;51.052;13.756;2023-05-08T03:21:32;5.40;1.00
19805;DHT22;10062;51.052;13.756;2023-05-08T03:24:06;5.50;1.00
19805;DHT22;10062;51.052;13.756;2023-05-08T03:26:39;5.50;1.00
19805;DHT22;10062;51.052;13.756;2023-05-08T03:29:12;5.50;1.00
19805;DHT22;10062;51.052;13.756;2023-05-08T03:31:46;5.50;1.00
19805;DHT22;10062;51.052;13.756;2023-05-08T03:34:18;5.50;1.00
19805;DHT22;10062;51.052;13.756;2023-05-08T03:36:54;5.50;1.00
19805;DHT22;10062;51.052;13.756;2023-05-08T03:39:26;5.40;1.00
19805;DHT22;10062;51.052;13.756;2023-05-08T03:41:58;5.40;1.00
19805;DHT22;10062;51.052;13.756;2023-05-08T03:44:31;5.40;1.00
19805;DHT22;10062;51.052;13.756;2023-05-08T03:47:03;5.40;8.20
19805;DHT22;10062;51.052;13.756;2023-05-08T03:49:37;5.40;5.50
19805;DHT22;10062;51.052;13.756;2023-05-08T03:52:10;5.40;5.90
19805;DHT22;10062;51.052;13.756;2023-05-08T03:54:42;5.40;6.80
19805;DHT22;10062;51.052;13.756;2023-05-08T03:57:15;5.40;9.80
19805;DHT22;10062;51.052;13.756;2023-05-08T03:59:51;5.40;13.20
19805;DHT22;10062;51.052;13.756;2023-05-08T04:02:32;5.40;18.10
19805;DHT22;10062;51.052;13.756;2023-05-08T04:05:13;5.40;17.80
19805;DHT22;10062;51.052;13.756;2023-05-08T04:07:52;5.50;21.10
19805;DHT22;10062;51.052;13.756;2023-05-08T04:10:29;5.40;19.40
19805;DHT22;10062;51.052;13.756;2023-05-08T04:13:05;5.60;2.00
19805;DHT22;10062;51.052;13.756;2023-05-08T04:15:45;5.60;1.00
19805;DHT22;10062;51.052;13.756;2023-05-08T04:18:24;5.70;1.00
19805;DHT22;10062;51.052;13.756;2023-05-08T04:21:00;5.70;1.00
19805;DHT22;10062;51.052;13.756;2023-05-08T04:23:37;5.90;1.00
19805;DHT22;10062;51.052;13.756;2023-05-08T04:26:10;5.90;1.00
19805;DHT22;10062;51.052;13.756;2023-05-08T04:31:17;5.90;1.00
19805;DHT22;10062;51.052;13.756;2023-05-08T04:33:50;5.90;1.00
19805;DHT22;10062;51.052;13.756;2023-05-08T04:36:22;6.00;1.00
19805;DHT22;10062;51.052;13.756;2023-05-08T04:38:56;6.10;1.00
19805;DHT22;10062;51.052;13.756;2023-05-08T04:41:28;6.10;1.00
19805;DHT22;10062;51.052;13.756;2023-05-08T04:44:00;6.10;1.00
19805;DHT22;10062;51.052;13.756;2023-05-08T04:46:33;6.20;1.00
19805;DHT22;10062;51.052;13.756;2023-05-08T04:51:37;6.30;1.00
19805;DHT22;10062;51.052;13.756;2023-05-08T04:54:10;6.40;1.00
19805;DHT22;10062;51.052;13.756;2023-05-08T04:56:42;6.60;1.00
19805;DHT22;10062;51.052;13.756;2023-05-08T05:01:46;6.80;1.00
19805;DHT22;10062;51.052;13.756;2023-05-08T05:04:18;7.00;1.00
19805;DHT22;10062;51.052;13.756;2023-05-08T05:09:23;7.10;1.00
19805;DHT22;10062;51.052;13.756;2023-05-08T05:24:41;7.40;1.00
19805;DHT22;10062;51.052;13.756;2023-05-08T05:27:13;7.60;1.00
19805;DHT22;10062;51.052;13.756;2023-05-08T05:29:44;7.60;99.90
19805;DHT22;10062;51.052;13.756;2023-05-08T05:32:16;7.60;99.90
19805;DHT22;10062;51.052;13.756;2023-05-08T05:34:48;7.70;88.90
19805;DHT22;10062;51.052;13.756;2023-05-08T05:37:22;7.70;99.90
19805;DHT22;10062;51.052;13.756;2023-05-08T05:39:55;7.70;1.00
19805;DHT22;10062;51.052;13.756;2023-05-08T05:44:59;8.00;99.90
19805;DHT22;10062;51.052;13.756;2023-05-08T05:47:32;8.10;90.20
19805;DHT22;10062;51.052;13.756;2023-05-08T05:50:04;8.20;99.90
19805;DHT22;10062;51.052;13.756;2023-05-08T05:52:37;8.30;99.90
19805;DHT22;10062;51.052;13.756;2023-05-08T05:55:10;8.30;1.00
19805;DHT22;10062;51.052;13.756;2023-05-08T05:57:41;8.50;99.90
19805;DHT22;10062;51.052;13.756;2023-05-08T06:00:14;8.50;99.90
19805;DHT22;10062;51.052;13.756;2023-05-08T06:02:49;8.50;1.00
19805;DHT22;10062;51.052;13.756;2023-05-08T06:05:21;8.50;1.00
19805;DHT22;10062;51.052;13.756;2023-05-08T06:07:53;8.70;1.00
19805;DHT22;10062;51.052;13.756;2023-05-08T06:10:26;8.70;1.00
19805;DHT22;10062;51.052;13.756;2023-05-08T06:12:57;8.70;1.00
19805;DHT22;10062;51.052;13.756;2023-05-08T06:18:02;9.00;99.90
19805;DHT22;10062;51.052;13.756;2023-05-08T06:20:35;9.10;99.90
19805;DHT22;10062;51.052;13.756;2023-05-08T06:23:07;9.50;99.90
19805;DHT22;10062;51.052;13.756;2023-05-08T06:25:40;9.60;1.00
19805;DHT22;10062;51.052;13.756;2023-05-08T06:28:11;9.70;1.00
19805;DHT22;10062;51.052;13.756;2023-05-08T06:30:43;9.60;1.00
19805;DHT22;10062;51.052;13.756;2023-05-08T06:33:15;9.90;1.00
19805;DHT22;10062;51.052;13.756;2023-05-08T06:35:47;10.20;1.00
19805;DHT22;10062;51.052;13.756;2023-05-08T06:38:18;10.20;1.00
19805;DHT22;10062;51.052;13.756;2023-05-08T06:40:51;10.70;1.00
19805;DHT22;10062;51.052;13.756;2023-05-08T06:43:24;10.80;1.00
19805;DHT22;10062;51.052;13.756;2023-05-08T06:45:56;10.90;1.00
19805;DHT22;10062;51.052;13.756;2023-05-08T06:48:27;11.20;1.00
19805;DHT22;10062;51.052;13.756;2023-05-08T06:50:59;11.20;1.00
19805;DHT22;10062;51.052;13.756;2023-05-08T06:53:31;11.30;1.00
19805;DHT22;10062;51.052;13.756;2023-05-08T06:56:05;11.70;99.90
19805;DHT22;10062;51.052;13.756;2023-05-08T07:01:08;12.40;99.90
19805;DHT22;10062;51.052;13.756;2023-05-08T07:03:41;12.40;99.90
19805;DHT22;10062;51.052;13.756;2023-05-08T07:06:12;12.60;1.00
19805;DHT22;10062;51.052;13.756;2023-05-08T07:08:44;12.90;3.00
19805;DHT22;10062;51.052;13.756;2023-05-08T07:11:17;13.40;1.00
19805;DHT22;10062;51.052;13.756;2023-05-08T07:13:49;13.60;1.00
19805;DHT22;10062;51.052;13.756;2023-05-08T07:16:20;13.80;1.00
19805;DHT22;10062;51.052;13.756;2023-05-08T07:18:52;14.00;1.00
19805;DHT22;10062;51.052;13.756;2023-05-08T07:21:24;14.10;1.00
19805;DHT22;10062;51.052;13.756;2023-05-08T07:23:55;14.40;1.00
19805;DHT22;10062;51.052;13.756;2023-05-08T07:26:28;14.70;1.00
19805;DHT22;10062;51.052;13.756;2023-05-08T07:31:32;14.80;99.90
19805;DHT22;10062;51.052;13.756;2023-05-08T07:34:04;15.30;99.90
19805;DHT22;10062;51.052;13.756;2023-05-08T07:36:36;16.00;99.90
19805;DHT22;10062;51.052;13.756;2023-05-08T07:39:09;17.00;99.90
19805;DHT22;10062;51.052;13.756;2023-05-08T07:41:42;18.60;68.30
19805;DHT22;10062;51.052;13.756;2023-05-08T07:44:15;19.60;1.00
19805;DHT22;10062;51.052;13.756;2023-05-08T07:49:18;19.10;1.00
19805;DHT22;10062;51.052;13.756;2023-05-08T07:51:50;18.90;1.00
19805;DHT22;10062;51.052;13.756;2023-05-08T07:54:22;18.90;1.00
19805;DHT22;10062;51.052;13.756;2023-05-08T07:56:54;18.60;1.00
19805;DHT22;10062;51.052;13.756;2023-05-08T07:59:26;18.30;1.00
19805;DHT22;10062;51.052;13.756;2023-05-08T08:01:58;18.50;1.00
19805;DHT22;10062;51.052;13.756;2023-05-08T08:04:30;18.60;1.00
19805;DHT22;10062;51.052;13.756;2023-05-08T08:07:01;18.50;1.00
19805;DHT22;10062;51.052;13.756;2023-05-08T08:09:33;18.40;1.00
19805;DHT22;10062;51.052;13.756;2023-05-08T08:12:06;18.30;1.00
19805;DHT22;10062;51.052;13.756;2023-05-08T08:14:38;18.20;1.00
19805;DHT22;10062;51.052;13.756;2023-05-08T08:17:09;18.60;1.00
19805;DHT22;10062;51.052;13.756;2023-05-08T08:19:41;19.30;1.00
19805;DHT22;10062;51.052;13.756;2023-05-08T08:22:12;19.10;1.00
19805;DHT22;10062;51.052;13.756;2023-05-08T08:24:44;19.70;1.00
19805;DHT22;10062;51.052;13.756;2023-05-08T08:27:17;20.70;1.00
19805;DHT22;10062;51.052;13.756;2023-05-08T08:29:49;21.10;1.00
19805;DHT22;10062;51.052;13.756;2023-05-08T08:32:21;21.80;1.00
19805;DHT22;10062;51.052;13.756;2023-05-08T08:34:52;22.40;1.00
19805;DHT22;10062;51.052;13.756;2023-05-08T08:37:24;23.70;1.00
19805;DHT22;10062;51.052;13.756;2023-05-08T08:39:56;24.90;1.00
19805;DHT22;10062;51.052;13.756;2023-05-08T08:42:29;24.90;1.00
19805;DHT22;10062;51.052;13.756;2023-05-08T08:45:01;25.90;1.00
19805;DHT22;10062;51.052;13.756;2023-05-08T08:47:34;27.70;1.00
19805;DHT22;10062;51.052;13.756;2023-05-08T08:50:08;29.40;1.00
19805;DHT22;10062;51.052;13.756;2023-05-08T08:52:46;29.00;1.00
19805;DHT22;10062;51.052;13.756;2023-05-08T08:55:19;30.90;1.00
19805;DHT22;10062;51.052;13.756;2023-05-08T08:58:04;31.70;1.00
19805;DHT22;10062;51.052;13.756;2023-05-08T09:00:38;34.10;1.00
19805;DHT22;10062;51.052;13.756;2023-05-08T09:03:10;34.20;1.00
19805;DHT22;10062;51.052;13.756;2023-05-08T09:05:42;32.70;1.00
19805;DHT22;10062;51.052;13.756;2023-05-08T09:08:14;33.70;1.00
19805;DHT22;10062;51.052;13.756;2023-05-08T09:10:46;34.20;1.00
19805;DHT22;10062;51.052;13.756;2023-05-08T09:13:19;35.20;1.00
19805;DHT22;10062;51.052;13.756;2023-05-08T09:15:51;35.80;1.00
19805;DHT22;10062;51.052;13.756;2023-05-08T09:18:22;36.40;1.00
19805;DHT22;10062;51.052;13.756;2023-05-08T09:20:54;36.30;1.00
19805;DHT22;10062;51.052;13.756;2023-05-08T09:23:26;35.30;1.00
19805;DHT22;10062;51.052;13.756;2023-05-08T09:25:58;35.20;1.00
19805;DHT22;10062;51.052;13.756;2023-05-08T09:28:31;34.60;1.00
19805;DHT22;10062;51.052;13.756;2023-05-08T09:31:03;36.60;1.00
19805;DHT22;10062;51.052;13.756;2023-05-08T09:33:43;33.10;1.00
19805;DHT22;10062;51.052;13.756;2023-05-08T09:36:24;35.10;1.00
19805;DHT22;10062;51.052;13.756;2023-05-08T09:38:57;35.60;1.00
19805;DHT22;10062;51.052;13.756;2023-05-08T09:41:28;37.40;1.00
19805;DHT22;10062;51.052;13.756;2023-05-08T09:44:04;39.00;1.00
19805;DHT22;10062;51.052;13.756;2023-05-08T09:46:36;39.10;1.00
19805;DHT22;10062;51.052;13.756;2023-05-08T09:49:16;39.50;1.00
19805;DHT22;10062;51.052;13.756;2023-05-08T09:51:51;39.00;1.00
19805;DHT22;10062;51.052;13.756;2023-05-08T09:54:23;36.60;1.00
19805;DHT22;10062;51.052;13.756;2023-05-08T09:56:55;38.60;1.00
19805;DHT22;10062;51.052;13.756;2023-05-08T09:59:28;40.80;1.00
19805;DHT22;10062;51.052;13.756;2023-05-08T10:02:09;40.50;1.00
19805;DHT22;10062;51.052;13.756;2023-05-08T10:04:41;36.80;1.00
19805;DHT22;10062;51.052;13.756;2023-05-08T10:07:13;39.00;1.00
19805;DHT22;10062;51.052;13.756;2023-05-08T10:09:57;41.00;1.00
19805;DHT22;10062;51.052;13.756;2023-05-08T10:12:30;41.20;1.00
19805;DHT22;10062;51.052;13.756;2023-05-08T10:15:04;38.60;1.00
19805;DHT22;10062;51.052;13.756;2023-05-08T10:17:39;38.80;1.00
19805;DHT22;10062;51.052;13.756;2023-05-08T10:20:13;36.80;1.00
19805;DHT22;10062;51.052;13.756;2023-05-08T10:22:47;36.70;1.00
19805;DHT22;10062;51.052;13.756;2023-05-08T10:25:21;31.70;1.00
19805;DHT22;10062;51.052;13.756;2023-05-08T10:27:57;30.60;1.00
19805;DHT22;10062;51.052;13.756;2023-05-08T10:30:33;33.90;1.00
19805;DHT22;10062;51.052;13.756;2023-05-08T10:33:09;34.60;1.00
19805;DHT22;10062;51.052;13.756;2023-05-08T10:35:44;37.90;1.00
19805;DHT22;10062;51.052;13.756;2023-05-08T10:38:16;40.50;1.00
19805;DHT22;10062;51.052;13.756;2023-05-08T10:40:49;35.90;1.00
19805;DHT22;10062;51.052;13.756;2023-05-08T10:43:29;30.00;1.00
19805;DHT22;10062;51.052;13.756;2023-05-08T10:46:08;32.00;1.00
19805;DHT22;10062;51.052;13.756;2023-05-08T10:48:47;36.00;1.00
19805;DHT22;10062;51.052;13.756;2023-05-08T10:51:25;38.90;1.00
19805;DHT22;10062;51.052;13.756;2023-05-08T10:54:05;42.00;1.00
19805;DHT22;10062;51.052;13.756;2023-05-08T10:56:39;43.70;1.00
19805;DHT22;10062;51.052;13.756;2023-05-08T10:59:17;44.10;1.00
19805;DHT22;10062;51.052;13.756;2023-05-08T11:01:50;40.80;1.00
19805;DHT22;10062;51.052;13.756;2023-05-08T11:04:22;35.20;1.00
19805;DHT22;10062;51.052;13.756;2023-05-08T11:06:54;36.30;1.00
19805;DHT22;10062;51.052;13.756;2023-05-08T11:09:30;35.80;1.00
19805;DHT22;10062;51.052;13.756;2023-05-08T11:12:22;31.90;1.00
19805;DHT22;10062;51.052;13.756;2023-05-08T11:14:57;33.90;1.00
19805;DHT22;10062;51.052;13.756;2023-05-08T11:17:32;30.20;1.00
19805;DHT22;10062;51.052;13.756;2023-05-08T11:20:05;29.50;1.00
19805;DHT22;10062;51.052;13.756;2023-05-08T11:22:38;28.20;1.00
19805;DHT22;10062;51.052;13.756;2023-05-08T11:25:17;25.60;1.00
19805;DHT22;10062;51.052;13.756;2023-05-08T11:30:45;26.30;1.00
19805;DHT22;10062;51.052;13.756;2023-05-08T11:33:18;26.40;1.00
19805;DHT22;10062;51.052;13.756;2023-05-08T11:35:54;26.70;1.00
19805;DHT22;10062;51.052;13.756;2023-05-08T11:38:29;27.10;1.00
19805;DHT22;10062;51.052;13.756;2023-05-08T11:41:03;27.30;1.00
19805;DHT22;10062;51.052;13.756;2023-05-08T11:44:05;27.40;1.00
19805;DHT22;10062;51.052;13.756;2023-05-08T11:46:48;27.50;1.00
19805;DHT22;10062;51.052;13.756;2023-05-08T11:49:23;27.40;1.00
19805;DHT22;10062;51.052;13.756;2023-05-08T11:51:57;27.20;1.00
19805;DHT22;10062;51.052;13.756;2023-05-08T11:54:29;27.10;1.00
19805;DHT22;10062;51.052;13.756;2023-05-08T11:57:01;27.20;1.00
19805;DHT22;10062;51.052;13.756;2023-05-08T11:59:34;26.70;1.00
19805;DHT22;10062;51.052;13.756;2023-05-08T12:02:06;25.60;1.00
19805;DHT22;10062;51.052;13.756;2023-05-08T12:04:46;24.80;1.00
19805;DHT22;10062;51.052;13.756;2023-05-08T12:07:17;23.90;1.00
19805;DHT22;10062;51.052;13.756;2023-05-08T12:09:50;24.40;1.00
19805;DHT22;10062;51.052;13.756;2023-05-08T12:12:22;24.60;1.00
19805;DHT22;10062;51.052;13.756;2023-05-08T12:14:53;24.80;1.00
19805;DHT22;10062;51.052;13.756;2023-05-08T12:17:25;25.30;1.00
19805;DHT22;10062;51.052;13.756;2023-05-08T12:20:08;25.70;1.00
19805;DHT22;10062;51.052;13.756;2023-05-08T12:22:41;25.90;1.00
19805;DHT22;10062;51.052;13.756;2023-05-08T12:25:13;26.10;1.00
19805;DHT22;10062;51.052;13.756;2023-05-08T12:27:45;26.40;1.00
19805;DHT22;10062;51.052;13.756;2023-05-08T12:30:17;26.60;1.00
19805;DHT22;10062;51.052;13.756;2023-05-08T12:32:48;26.60;1.00
19805;DHT22;10062;51.052;13.756;2023-05-08T12:35:22;26.60;1.00
19805;DHT22;10062;51.052;13.756;2023-05-08T12:37:59;26.60;1.00
19805;DHT22;10062;51.052;13.756;2023-05-08T12:40:33;26.70;1.00
19805;DHT22;10062;51.052;13.756;2023-05-08T12:43:05;26.70;1.00
19805;DHT22;10062;51.052;13.756;2023-05-08T12:45:38;26.60;1.00
19805;DHT22;10062;51.052;13.756;2023-05-08T12:48:11;26.60;1.00
19805;DHT22;10062;51.052;13.756;2023-05-08T12:50:46;26.50;1.00
19805;DHT22;10062;51.052;13.756;2023-05-08T12:53:19;26.40;1.00
19805;DHT22;10062;51.052;13.756;2023-05-08T12:55:52;26.40;1.00
19805;DHT22;10062;51.052;13.756;2023-05-08T12:58:25;26.70;1.00
19805;DHT22;10062;51.052;13.756;2023-05-08T13:01:08;26.90;1.00
19805;DHT22;10062;51.052;13.756;2023-05-08T13:03:42;26.00;1.00
19805;DHT22;10062;51.052;13.756;2023-05-08T13:06:21;26.50;1.00
19805;DHT22;10062;51.052;13.756;2023-05-08T13:08:53;26.60;1.00
19805;DHT22;10062;51.052;13.756;2023-05-08T13:11:29;26.80;1.00
19805;DHT22;10062;51.052;13.756;2023-05-08T13:14:02;27.10;1.00
19805;DHT22;10062;51.052;13.756;2023-05-08T13:16:41;27.20;1.00
19805;DHT22;10062;51.052;13.756;2023-05-08T13:19:13;27.10;1.00
19805;DHT22;10062;51.052;13.756;2023-05-08T13:21:46;27.10;1.00
19805;DHT22;10062;51.052;13.756;2023-05-08T13:24:18;27.00;1.00
19805;DHT22;10062;51.052;13.756;2023-05-08T13:26:50;27.10;1.00
19805;DHT22;10062;51.052;13.756;2023-05-08T13:29:22;27.20;1.00
19805;DHT22;10062;51.052;13.756;2023-05-08T13:31:53;27.10;1.00
19805;DHT22;10062;51.052;13.756;2023-05-08T13:34:25;27.20;1.00
19805;DHT22;10062;51.052;13.756;2023-05-08T13:36:58;27.20;1.00
19805;DHT22;10062;51.052;13.756;2023-05-08T13:39:30;27.20;1.00
19805;DHT22;10062;51.052;13.756;2023-05-08T13:42:06;27.00;1.00
19805;DHT22;10062;51.052;13.756;2023-05-08T13:44:38;26.90;1.00
19805;DHT22;10062;51.052;13.756;2023-05-08T13:47:10;26.90;1.00
19805;DHT22;10062;51.052;13.756;2023-05-08T13:49:41;26.90;1.00
19805;DHT22;10062;51.052;13.756;2023-05-08T13:52:15;26.60;1.00
19805;DHT22;10062;51.052;13.756;2023-05-08T13:54:47;26.20;1.00
19805;DHT22;10062;51.052;13.756;2023-05-08T13:57:18;26.20;1.00
19805;DHT22;10062;51.052;13.756;2023-05-08T13:59:50;26.00;1.00
19805;DHT22;10062;51.052;13.756;2023-05-08T14:02:22;26.10;1.00
19805;DHT22;10062;51.052;13.756;2023-05-08T14:04:53;26.40;1.00
19805;DHT22;10062;51.052;13.756;2023-05-08T14:07:26;26.40;1.00
19805;DHT22;10062;51.052;13.756;2023-05-08T14:09:59;26.20;1.00
19805;DHT22;10062;51.052;13.756;2023-05-08T14:12:31;26.20;1.00
19805;DHT22;10062;51.052;13.756;2023-05-08T14:15:06;26.20;1.00
19805;DHT22;10062;51.052;13.756;2023-05-08T14:17:38;26.10;1.00
19805;DHT22;10062;51.052;13.756;2023-05-08T14:20:11;26.10;1.00
19805;DHT22;10062;51.052;13.756;2023-05-08T14:22:44;25.60;1.00
19805;DHT22;10062;51.052;13.756;2023-05-08T14:25:16;25.50;1.00
19805;DHT22;10062;51.052;13.756;2023-05-08T14:27:47;26.40;1.00
19805;DHT22;10062;51.052;13.756;2023-05-08T14:30:19;25.80;1.00
19805;DHT22;10062;51.052;13.756;2023-05-08T14:32:51;26.00;1.00
19805;DHT22;10062;51.052;13.756;2023-05-08T14:35:22;26.20;1.00
19805;DHT22;10062;51.052;13.756;2023-05-08T14:37:55;26.30;1.00
19805;DHT22;10062;51.052;13.756;2023-05-08T14:40:27;26.30;1.00
19805;DHT22;10062;51.052;13.756;2023-05-08T14:42:59;26.30;1.00
19805;DHT22;10062;51.052;13.756;2023-05-08T14:45:30;26.00;1.00
19805;DHT22;10062;51.052;13.756;2023-05-08T14:48:02;26.10;1.00
19805;DHT22;10062;51.052;13.756;2023-05-08T14:50:34;26.50;1.00
19805;DHT22;10062;51.052;13.756;2023-05-08T14:53:07;26.70;1.00
19805;DHT22;10062;51.052;13.756;2023-05-08T14:55:39;26.40;1.00
19805;DHT22;10062;51.052;13.756;2023-05-08T14:58:10;26.30;1.00
19805;DHT22;10062;51.052;13.756;2023-05-08T15:00:42;26.20;1.00
19805;DHT22;10062;51.052;13.756;2023-05-08T15:03:14;26.10;1.00
19805;DHT22;10062;51.052;13.756;2023-05-08T15:05:45;25.80;1.00
19805;DHT22;10062;51.052;13.756;2023-05-08T15:08:18;25.70;1.00
19805;DHT22;10062;51.052;13.756;2023-05-08T15:10:50;25.60;1.00
19805;DHT22;10062;51.052;13.756;2023-05-08T15:13:22;25.80;1.00
19805;DHT22;10062;51.052;13.756;2023-05-08T15:15:53;25.60;1.00
19805;DHT22;10062;51.052;13.756;2023-05-08T15:18:25;25.00;1.00
19805;DHT22;10062;51.052;13.756;2023-05-08T15:20:57;25.00;1.00
19805;DHT22;10062;51.052;13.756;2023-05-08T15:23:31;25.00;1.00
19805;DHT22;10062;51.052;13.756;2023-05-08T15:26:03;24.80;1.00
19805;DHT22;10062;51.052;13.756;2023-05-08T15:28:34;24.60;1.00
19805;DHT22;10062;51.052;13.756;2023-05-08T15:31:06;24.30;1.00
19805;DHT22;10062;51.052;13.756;2023-05-08T15:33:38;24.00;1.00
19805;DHT22;10062;51.052;13.756;2023-05-08T15:36:14;24.00;1.00
19805;DHT22;10062;51.052;13.756;2023-05-08T15:38:47;23.80;1.00
19805;DHT22;10062;51.052;13.756;2023-05-08T15:41:19;23.60;1.00
19805;DHT22;10062;51.052;13.756;2023-05-08T15:43:51;23.50;1.00
19805;DHT22;10062;51.052;13.756;2023-05-08T15:46:22;23.30;1.00
19805;DHT22;10062;51.052;13.756;2023-05-08T15:48:54;23.00;1.00
19805;DHT22;10062;51.052;13.756;2023-05-08T15:51:26;22.70;1.00
19805;DHT22;10062;51.052;13.756;2023-05-08T15:53:59;22.40;1.00
19805;DHT22;10062;51.052;13.756;2023-05-08T15:56:31;22.20;1.00
19805;DHT22;10062;51.052;13.756;2023-05-08T15:59:03;21.90;1.00
19805;DHT22;10062;51.052;13.756;2023-05-08T16:01:35;21.90;1.00
19805;DHT22;10062;51.052;13.756;2023-05-08T16:04:08;21.80;1.00
19805;DHT22;10062;51.052;13.756;2023-05-08T16:06:39;21.70;1.00
19805;DHT22;10062;51.052;13.756;2023-05-08T16:09:12;21.60;1.00
19805;DHT22;10062;51.052;13.756;2023-05-08T16:11:44;21.40;1.00
19805;DHT22;10062;51.052;13.756;2023-05-08T16:14:17;21.30;1.00
19805;DHT22;10062;51.052;13.756;2023-05-08T16:16:49;21.10;1.00
19805;DHT22;10062;51.052;13.756;2023-05-08T16:19:20;20.90;1.00
19805;DHT22;10062;51.052;13.756;2023-05-08T16:21:52;21.00;1.00
19805;DHT22;10062;51.052;13.756;2023-05-08T16:24:25;20.70;1.00
19805;DHT22;10062;51.052;13.756;2023-05-08T16:26:57;20.50;1.00
19805;DHT22;10062;51.052;13.756;2023-05-08T16:29:28;20.40;1.00
19805;DHT22;10062;51.052;13.756;2023-05-08T16:32:00;20.50;1.00
19805;DHT22;10062;51.052;13.756;2023-05-08T16:34:32;20.40;1.00
19805;DHT22;10062;51.052;13.756;2023-05-08T16:37:04;20.40;1.00
19805;DHT22;10062;51.052;13.756;2023-05-08T16:39:37;20.30;1.00
19805;DHT22;10062;51.052;13.756;2023-05-08T16:42:09;19.90;1.00
19805;DHT22;10062;51.052;13.756;2023-05-08T16:44:40;20.00;1.00
19805;DHT22;10062;51.052;13.756;2023-05-08T16:47:12;20.00;1.00
19805;DHT22;10062;51.052;13.756;2023-05-08T16:49:44;20.00;1.00
19805;DHT22;10062;51.052;13.756;2023-05-08T16:52:15;19.90;1.00
19805;DHT22;10062;51.052;13.756;2023-05-08T16:54:48;19.70;1.00
19805;DHT22;10062;51.052;13.756;2023-05-08T16:59:52;19.80;1.00
19805;DHT22;10062;51.052;13.756;2023-05-08T17:02:24;19.70;1.00
19805;DHT22;10062;51.052;13.756;2023-05-08T17:04:55;19.70;1.00